sensor_id;sensor_type;location;lat;lon;timestamp;P1;durP1;ratioP1;P2;durP2;ratioP2
63280;SDS011;49406;51.044;3.766;2023-06-22T00:02:12;1.70;;;0.90;;
63280;SDS011;49406;51.044;3.766;2023-06-22T00:04:47;2.60;;;1.20;;
63280;SDS011;49406;51.044;3.766;2023-06-22T00:07:22;8.10;;;1.20;;
63280;SDS011;49406;51.044;3.766;2023-06-22T00:09:56;3.00;;;1.50;;
63280;SDS011;49406;51.044;3.766;2023-06-22T00:12:31;3.40;;;2.30;;
63280;SDS011;49406;51.044;3.766;2023-06-22T00:15:06;2.60;;;1.80;;
63280;SDS011;49406;51.044;3.766;2023-06-22T00:17:41;3.70;;;1.70;;
63280;SDS011;49406;51.044;3.766;2023-06-22T00:20:16;6.20;;;1.40;;
63280;SDS011;49406;51.044;3.766;2023-06-22T00:22:50;2.60;;;1.60;;
63280;SDS011;49406;51.044;3.766;2023-06-22T00:25:25;2.70;;;1.50;;
63280;SDS011;49406;51.044;3.766;2023-06-22T00:28:01;3.20;;;1.60;;
63280;SDS011;49406;51.044;3.766;2023-06-22T00:30:36;3.60;;;2.20;;
63280;SDS011;49406;51.044;3.766;2023-06-22T00:33:11;2.90;;;1.90;;
63280;SDS011;49406;51.044;3.766;2023-06-22T00:35:45;3.60;;;1.30;;
63280;SDS011;49406;51.044;3.766;2023-06-22T00:38:20;3.70;;;2.20;;
63280;SDS011;49406;51.044;3.766;2023-06-22T00:40:54;4.50;;;1.90;;
63280;SDS011;49406;51.044;3.766;2023-06-22T00:43:29;3.60;;;1.50;;
63280;SDS011;49406;51.044;3.766;2023-06-22T00:46:04;6.30;;;1.90;;
63280;SDS011;49406;51.044;3.766;2023-06-22T00:48:38;7.60;;;2.00;;
63280;SDS011;49406;51.044;3.766;2023-06-22T00:51:15;4.10;;;2.30;;
63280;SDS011;49406;51.044;3.766;2023-06-22T00:53:55;3.20;;;2.10;;
63280;SDS011;49406;51.044;3.766;2023-06-22T00:56:30;6.50;;;2.20;;
63280;SDS011;49406;51.044;3.766;2023-06-22T00:59:09;2.90;;;1.90;;
63280;SDS011;49406;51.044;3.766;2023-06-22T01:01:45;4.60;;;2.70;;
63280;SDS011;49406;51.044;3.766;2023-06-22T01:04:19;3.50;;;2.00;;
63280;SDS011;49406;51.044;3.766;2023-06-22T01:06:55;3.90;;;2.10;;
63280;SDS011;49406;51.044;3.766;2023-06-22T01:09:38;4.50;;;3.10;;
63280;SDS011;49406;51.044;3.766;2023-06-22T01:12:20;3.80;;;2.60;;
63280;SDS011;49406;51.044;3.766;2023-06-22T01:14:57;3.80;;;1.90;;
63280;SDS011;49406;51.044;3.766;2023-06-22T01:17:37;7.50;;;3.30;;
63280;SDS011;49406;51.044;3.766;2023-06-22T01:20:16;3.10;;;1.80;;
63280;SDS011;49406;51.044;3.766;2023-06-22T01:25:36;4.30;;;2.30;;
63280;SDS011;49406;51.044;3.766;2023-06-22T01:28:23;5.90;;;2.80;;
63280;SDS011;49406;51.044;3.766;2023-06-22T01:31:08;3.80;;;2.60;;
63280;SDS011;49406;51.044;3.766;2023-06-22T01:33:47;17.40;;;4.30;;
63280;SDS011;49406;51.044;3.766;2023-06-22T01:36:24;7.30;;;4.70;;
63280;SDS011;49406;51.044;3.766;2023-06-22T01:38:59;4.50;;;2.60;;
63280;SDS011;49406;51.044;3.766;2023-06-22T01:41:37;4.40;;;2.40;;
63280;SDS011;49406;51.044;3.766;2023-06-22T01:44:13;6.80;;;2.00;;
63280;SDS011;49406;51.044;3.766;2023-06-22T01:46:48;3.90;;;2.70;;
63280;SDS011;49406;51.044;3.766;2023-06-22T01:49:24;6.50;;;3.60;;
63280;SDS011;49406;51.044;3.766;2023-06-22T01:51:59;5.10;;;2.40;;
63280;SDS011;49406;51.044;3.766;2023-06-22T01:54:34;3.30;;;2.00;;
63280;SDS011;49406;51.044;3.766;2023-06-22T01:57:09;5.30;;;3.40;;
63280;SDS011;49406;51.044;3.766;2023-06-22T01:59:46;4.10;;;2.20;;
63280;SDS011;49406;51.044;3.766;2023-06-22T02:02:27;3.50;;;2.10;;
63280;SDS011;49406;51.044;3.766;2023-06-22T02:05:07;4.80;;;3.10;;
63280;SDS011;49406;51.044;3.766;2023-06-22T02:07:45;3.40;;;2.40;;
63280;SDS011;49406;51.044;3.766;2023-06-22T02:10:25;2.80;;;1.90;;
63280;SDS011;49406;51.044;3.766;2023-06-22T02:13:01;5.30;;;2.80;;
63280;SDS011;49406;51.044;3.766;2023-06-22T02:18:12;1.80;;;1.40;;
63280;SDS011;49406;51.044;3.766;2023-06-22T02:20:47;4.00;;;2.20;;
63280;SDS011;49406;51.044;3.766;2023-06-22T02:23:21;4.60;;;2.70;;
63280;SDS011;49406;51.044;3.766;2023-06-22T02:25:56;4.00;;;2.30;;
63280;SDS011;49406;51.044;3.766;2023-06-22T02:28:31;4.60;;;3.00;;
63280;SDS011;49406;51.044;3.766;2023-06-22T02:31:05;6.50;;;3.70;;
63280;SDS011;49406;51.044;3.766;2023-06-22T02:33:40;7.10;;;3.90;;
63280;SDS011;49406;51.044;3.766;2023-06-22T02:36:15;10.40;;;5.30;;
63280;SDS011;49406;51.044;3.766;2023-06-22T02:38:57;4.50;;;3.00;;
63280;SDS011;49406;51.044;3.766;2023-06-22T02:41:32;4.60;;;3.60;;
63280;SDS011;49406;51.044;3.766;2023-06-22T02:44:07;5.70;;;3.70;;
63280;SDS011;49406;51.044;3.766;2023-06-22T02:46:42;6.10;;;4.00;;
63280;SDS011;49406;51.044;3.766;2023-06-22T02:49:16;5.70;;;4.20;;
63280;SDS011;49406;51.044;3.766;2023-06-22T02:51:51;7.70;;;4.40;;
63280;SDS011;49406;51.044;3.766;2023-06-22T02:54:26;6.40;;;4.60;;
63280;SDS011;49406;51.044;3.766;2023-06-22T02:57:01;6.40;;;3.60;;
63280;SDS011;49406;51.044;3.766;2023-06-22T02:59:36;9.70;;;4.40;;
63280;SDS011;49406;51.044;3.766;2023-06-22T03:02:12;4.40;;;3.30;;
63280;SDS011;49406;51.044;3.766;2023-06-22T03:04:49;4.60;;;2.90;;
63280;SDS011;49406;51.044;3.766;2023-06-22T03:07:25;4.00;;;1.80;;
63280;SDS011;49406;51.044;3.766;2023-06-22T03:10:02;7.60;;;4.40;;
63280;SDS011;49406;51.044;3.766;2023-06-22T03:12:37;5.70;;;4.50;;
63280;SDS011;49406;51.044;3.766;2023-06-22T03:15:12;7.10;;;4.00;;
63280;SDS011;49406;51.044;3.766;2023-06-22T03:17:48;5.80;;;3.90;;
63280;SDS011;49406;51.044;3.766;2023-06-22T03:20:23;5.00;;;3.40;;
63280;SDS011;49406;51.044;3.766;2023-06-22T03:23:05;6.70;;;4.60;;
63280;SDS011;49406;51.044;3.766;2023-06-22T03:25:40;5.40;;;3.70;;
63280;SDS011;49406;51.044;3.766;2023-06-22T03:28:16;4.60;;;4.00;;
63280;SDS011;49406;51.044;3.766;2023-06-22T03:30:50;6.60;;;2.90;;
63280;SDS011;49406;51.044;3.766;2023-06-22T03:33:25;8.40;;;2.50;;
63280;SDS011;49406;51.044;3.766;2023-06-22T03:36:00;8.80;;;3.70;;
63280;SDS011;49406;51.044;3.766;2023-06-22T03:38:35;4.60;;;3.10;;
63280;SDS011;49406;51.044;3.766;2023-06-22T03:41:10;4.40;;;3.30;;
63280;SDS011;49406;51.044;3.766;2023-06-22T03:43:44;6.80;;;3.20;;
63280;SDS011;49406;51.044;3.766;2023-06-22T03:48:52;8.90;;;4.10;;
63280;SDS011;49406;51.044;3.766;2023-06-22T03:51:27;5.30;;;3.30;;
63280;SDS011;49406;51.044;3.766;2023-06-22T03:54:02;5.20;;;3.80;;
63280;SDS011;49406;51.044;3.766;2023-06-22T03:56:36;5.70;;;3.60;;
63280;SDS011;49406;51.044;3.766;2023-06-22T03:59:11;3.80;;;1.80;;
63280;SDS011;49406;51.044;3.766;2023-06-22T04:01:46;8.10;;;3.80;;
63280;SDS011;49406;51.044;3.766;2023-06-22T04:04:22;5.00;;;2.50;;
63280;SDS011;49406;51.044;3.766;2023-06-22T04:06:56;5.30;;;2.40;;
63280;SDS011;49406;51.044;3.766;2023-06-22T04:09:31;7.20;;;2.70;;
63280;SDS011;49406;51.044;3.766;2023-06-22T04:12:06;6.30;;;3.40;;
63280;SDS011;49406;51.044;3.766;2023-06-22T04:14:42;5.90;;;3.30;;
63280;SDS011;49406;51.044;3.766;2023-06-22T04:17:16;4.60;;;3.10;;
63280;SDS011;49406;51.044;3.766;2023-06-22T04:19:51;5.00;;;2.80;;
63280;SDS011;49406;51.044;3.766;2023-06-22T04:22:26;7.30;;;3.90;;
63280;SDS011;49406;51.044;3.766;2023-06-22T04:25:00;5.40;;;2.40;;
63280;SDS011;49406;51.044;3.766;2023-06-22T04:27:35;4.70;;;3.40;;
63280;SDS011;49406;51.044;3.766;2023-06-22T04:30:12;4.80;;;3.30;;
63280;SDS011;49406;51.044;3.766;2023-06-22T04:32:48;2.20;;;1.40;;
63280;SDS011;49406;51.044;3.766;2023-06-22T04:35:27;9.30;;;3.90;;
63280;SDS011;49406;51.044;3.766;2023-06-22T04:38:02;4.90;;;3.20;;
63280;SDS011;49406;51.044;3.766;2023-06-22T04:40:36;4.40;;;2.80;;
63280;SDS011;49406;51.044;3.766;2023-06-22T04:43:11;7.70;;;4.30;;
63280;SDS011;49406;51.044;3.766;2023-06-22T04:45:46;7.90;;;3.90;;
63280;SDS011;49406;51.044;3.766;2023-06-22T04:48:23;5.40;;;2.80;;
63280;SDS011;49406;51.044;3.766;2023-06-22T04:51:04;9.10;;;2.80;;
63280;SDS011;49406;51.044;3.766;2023-06-22T04:56:14;5.80;;;3.30;;
63280;SDS011;49406;51.044;3.766;2023-06-22T04:58:49;12.10;;;2.40;;
63280;SDS011;49406;51.044;3.766;2023-06-22T05:01:23;10.70;;;2.70;;
63280;SDS011;49406;51.044;3.766;2023-06-22T05:03:58;6.80;;;4.00;;
63280;SDS011;49406;51.044;3.766;2023-06-22T05:06:34;3.00;;;1.30;;
63280;SDS011;49406;51.044;3.766;2023-06-22T05:09:08;5.80;;;2.40;;
63280;SDS011;49406;51.044;3.766;2023-06-22T05:14:16;16.30;;;3.80;;
63280;SDS011;49406;51.044;3.766;2023-06-22T05:16:51;6.70;;;3.00;;
63280;SDS011;49406;51.044;3.766;2023-06-22T05:19:25;6.50;;;4.20;;
63280;SDS011;49406;51.044;3.766;2023-06-22T05:22:05;4.60;;;2.90;;
63280;SDS011;49406;51.044;3.766;2023-06-22T05:24:39;6.40;;;3.60;;
63280;SDS011;49406;51.044;3.766;2023-06-22T05:27:14;8.00;;;2.80;;
63280;SDS011;49406;51.044;3.766;2023-06-22T05:29:49;7.40;;;3.60;;
63280;SDS011;49406;51.044;3.766;2023-06-22T05:32:24;5.20;;;2.80;;
63280;SDS011;49406;51.044;3.766;2023-06-22T05:34:58;5.30;;;3.50;;
63280;SDS011;49406;51.044;3.766;2023-06-22T05:37:33;7.60;;;5.10;;
63280;SDS011;49406;51.044;3.766;2023-06-22T05:40:09;6.70;;;4.60;;
63280;SDS011;49406;51.044;3.766;2023-06-22T05:42:44;5.00;;;3.70;;
63280;SDS011;49406;51.044;3.766;2023-06-22T05:45:19;5.80;;;3.70;;
63280;SDS011;49406;51.044;3.766;2023-06-22T05:47:53;7.40;;;3.90;;
63280;SDS011;49406;51.044;3.766;2023-06-22T05:50:28;3.30;;;2.30;;
63280;SDS011;49406;51.044;3.766;2023-06-22T05:53:03;4.00;;;1.90;;
63280;SDS011;49406;51.044;3.766;2023-06-22T05:55:38;2.70;;;1.40;;
63280;SDS011;49406;51.044;3.766;2023-06-22T05:58:14;5.90;;;3.40;;
63280;SDS011;49406;51.044;3.766;2023-06-22T06:00:48;6.40;;;3.80;;
63280;SDS011;49406;51.044;3.766;2023-06-22T06:03:23;7.00;;;4.00;;
63280;SDS011;49406;51.044;3.766;2023-06-22T06:06:00;4.30;;;1.50;;
63280;SDS011;49406;51.044;3.766;2023-06-22T06:08:35;8.60;;;5.40;;
63280;SDS011;49406;51.044;3.766;2023-06-22T06:11:09;5.10;;;3.90;;
63280;SDS011;49406;51.044;3.766;2023-06-22T06:13:44;4.00;;;1.90;;
63280;SDS011;49406;51.044;3.766;2023-06-22T06:16:18;2.80;;;1.60;;
63280;SDS011;49406;51.044;3.766;2023-06-22T06:18:53;10.00;;;5.00;;
63280;SDS011;49406;51.044;3.766;2023-06-22T06:21:30;7.80;;;4.60;;
63280;SDS011;49406;51.044;3.766;2023-06-22T06:24:05;11.40;;;6.10;;
63280;SDS011;49406;51.044;3.766;2023-06-22T06:26:40;12.60;;;7.60;;
63280;SDS011;49406;51.044;3.766;2023-06-22T06:29:14;6.70;;;4.30;;
63280;SDS011;49406;51.044;3.766;2023-06-22T06:31:49;5.40;;;2.80;;
63280;SDS011;49406;51.044;3.766;2023-06-22T06:34:23;11.30;;;6.50;;
63280;SDS011;49406;51.044;3.766;2023-06-22T06:36:58;6.50;;;3.90;;
63280;SDS011;49406;51.044;3.766;2023-06-22T06:39:32;8.80;;;5.30;;
63280;SDS011;49406;51.044;3.766;2023-06-22T06:42:07;8.10;;;5.30;;
63280;SDS011;49406;51.044;3.766;2023-06-22T06:44:42;7.20;;;2.30;;
63280;SDS011;49406;51.044;3.766;2023-06-22T06:47:17;9.30;;;5.50;;
63280;SDS011;49406;51.044;3.766;2023-06-22T06:49:51;22.40;;;5.70;;
63280;SDS011;49406;51.044;3.766;2023-06-22T06:52:26;6.60;;;5.10;;
63280;SDS011;49406;51.044;3.766;2023-06-22T06:55:01;7.80;;;6.20;;
63280;SDS011;49406;51.044;3.766;2023-06-22T06:57:39;8.80;;;7.20;;
63280;SDS011;49406;51.044;3.766;2023-06-22T07:00:16;10.80;;;6.20;;
63280;SDS011;49406;51.044;3.766;2023-06-22T07:02:52;8.50;;;6.70;;
63280;SDS011;49406;51.044;3.766;2023-06-22T07:05:27;9.80;;;6.70;;
63280;SDS011;49406;51.044;3.766;2023-06-22T07:08:02;9.00;;;7.00;;
63280;SDS011;49406;51.044;3.766;2023-06-22T07:10:36;7.20;;;4.40;;
63280;SDS011;49406;51.044;3.766;2023-06-22T07:13:11;8.00;;;5.20;;
63280;SDS011;49406;51.044;3.766;2023-06-22T07:15:45;9.70;;;6.80;;
63280;SDS011;49406;51.044;3.766;2023-06-22T07:18:20;8.40;;;5.50;;
63280;SDS011;49406;51.044;3.766;2023-06-22T07:20:55;11.00;;;7.40;;
63280;SDS011;49406;51.044;3.766;2023-06-22T07:23:29;11.00;;;7.10;;
63280;SDS011;49406;51.044;3.766;2023-06-22T07:26:04;8.90;;;6.50;;
63280;SDS011;49406;51.044;3.766;2023-06-22T07:28:40;7.60;;;4.30;;
63280;SDS011;49406;51.044;3.766;2023-06-22T07:31:14;5.90;;;4.60;;
63280;SDS011;49406;51.044;3.766;2023-06-22T07:33:49;6.60;;;5.10;;
63280;SDS011;49406;51.044;3.766;2023-06-22T07:36:23;12.30;;;6.80;;
63280;SDS011;49406;51.044;3.766;2023-06-22T07:38:58;9.40;;;6.30;;
63280;SDS011;49406;51.044;3.766;2023-06-22T07:41:33;8.00;;;5.60;;
63280;SDS011;49406;51.044;3.766;2023-06-22T07:44:07;5.80;;;4.30;;
63280;SDS011;49406;51.044;3.766;2023-06-22T07:46:42;6.40;;;4.50;;
63280;SDS011;49406;51.044;3.766;2023-06-22T07:49:16;9.10;;;7.20;;
63280;SDS011;49406;51.044;3.766;2023-06-22T07:51:51;7.70;;;5.90;;
63280;SDS011;49406;51.044;3.766;2023-06-22T07:54:26;17.10;;;10.50;;
63280;SDS011;49406;51.044;3.766;2023-06-22T07:57:00;12.10;;;5.40;;
63280;SDS011;49406;51.044;3.766;2023-06-22T07:59:35;4.40;;;3.00;;
63280;SDS011;49406;51.044;3.766;2023-06-22T08:02:10;6.70;;;3.50;;
63280;SDS011;49406;51.044;3.766;2023-06-22T08:04:44;10.70;;;6.90;;
63280;SDS011;49406;51.044;3.766;2023-06-22T08:07:19;9.50;;;6.90;;
63280;SDS011;49406;51.044;3.766;2023-06-22T08:09:54;8.00;;;5.70;;
63280;SDS011;49406;51.044;3.766;2023-06-22T08:12:29;17.30;;;7.10;;
63280;SDS011;49406;51.044;3.766;2023-06-22T08:15:04;7.60;;;5.50;;
63280;SDS011;49406;51.044;3.766;2023-06-22T08:17:40;6.60;;;4.10;;
63280;SDS011;49406;51.044;3.766;2023-06-22T08:20:16;8.10;;;5.50;;
63280;SDS011;49406;51.044;3.766;2023-06-22T08:22:51;12.30;;;6.10;;
63280;SDS011;49406;51.044;3.766;2023-06-22T08:25:26;11.60;;;7.20;;
63280;SDS011;49406;51.044;3.766;2023-06-22T08:28:00;5.60;;;4.10;;
63280;SDS011;49406;51.044;3.766;2023-06-22T08:30:36;13.30;;;7.30;;
63280;SDS011;49406;51.044;3.766;2023-06-22T08:33:10;9.00;;;7.40;;
63280;SDS011;49406;51.044;3.766;2023-06-22T08:35:45;12.90;;;10.40;;
63280;SDS011;49406;51.044;3.766;2023-06-22T08:38:20;16.60;;;9.40;;
63280;SDS011;49406;51.044;3.766;2023-06-22T08:40:54;20.20;;;7.60;;
63280;SDS011;49406;51.044;3.766;2023-06-22T08:43:29;9.20;;;7.10;;
63280;SDS011;49406;51.044;3.766;2023-06-22T08:46:04;15.00;;;9.90;;
63280;SDS011;49406;51.044;3.766;2023-06-22T08:48:38;16.90;;;8.80;;
63280;SDS011;49406;51.044;3.766;2023-06-22T08:51:13;9.70;;;7.40;;
63280;SDS011;49406;51.044;3.766;2023-06-22T08:53:47;10.70;;;5.00;;
63280;SDS011;49406;51.044;3.766;2023-06-22T08:56:22;10.90;;;7.40;;
63280;SDS011;49406;51.044;3.766;2023-06-22T08:58:57;15.30;;;7.10;;
63280;SDS011;49406;51.044;3.766;2023-06-22T09:01:32;11.60;;;9.20;;
63280;SDS011;49406;51.044;3.766;2023-06-22T09:04:06;13.20;;;9.00;;
63280;SDS011;49406;51.044;3.766;2023-06-22T09:06:41;9.20;;;6.90;;
63280;SDS011;49406;51.044;3.766;2023-06-22T09:09:17;5.00;;;3.70;;
63280;SDS011;49406;51.044;3.766;2023-06-22T09:11:54;12.50;;;8.40;;
63280;SDS011;49406;51.044;3.766;2023-06-22T09:14:28;7.40;;;5.20;;
63280;SDS011;49406;51.044;3.766;2023-06-22T09:17:04;14.90;;;6.70;;
63280;SDS011;49406;51.044;3.766;2023-06-22T09:19:39;7.70;;;5.80;;
63280;SDS011;49406;51.044;3.766;2023-06-22T09:22:14;4.80;;;3.90;;
63280;SDS011;49406;51.044;3.766;2023-06-22T09:24:48;9.50;;;7.60;;
63280;SDS011;49406;51.044;3.766;2023-06-22T09:27:23;6.40;;;3.30;;
63280;SDS011;49406;51.044;3.766;2023-06-22T09:29:58;6.20;;;4.20;;
63280;SDS011;49406;51.044;3.766;2023-06-22T09:32:32;6.30;;;4.10;;
63280;SDS011;49406;51.044;3.766;2023-06-22T09:35:08;6.60;;;4.80;;
63280;SDS011;49406;51.044;3.766;2023-06-22T09:37:45;6.10;;;4.30;;
63280;SDS011;49406;51.044;3.766;2023-06-22T09:40:19;12.80;;;8.10;;
63280;SDS011;49406;51.044;3.766;2023-06-22T09:42:54;9.90;;;7.20;;
63280;SDS011;49406;51.044;3.766;2023-06-22T09:45:28;8.70;;;6.20;;
63280;SDS011;49406;51.044;3.766;2023-06-22T09:48:03;17.20;;;9.30;;
63280;SDS011;49406;51.044;3.766;2023-06-22T09:50:38;9.50;;;6.00;;
63280;SDS011;49406;51.044;3.766;2023-06-22T09:53:13;13.80;;;10.40;;
63280;SDS011;49406;51.044;3.766;2023-06-22T09:55:47;5.50;;;3.90;;
63280;SDS011;49406;51.044;3.766;2023-06-22T09:58:22;5.00;;;3.10;;
63280;SDS011;49406;51.044;3.766;2023-06-22T10:00:56;3.70;;;2.60;;
63280;SDS011;49406;51.044;3.766;2023-06-22T10:03:31;11.50;;;6.30;;
63280;SDS011;49406;51.044;3.766;2023-06-22T10:06:06;12.30;;;7.60;;
63280;SDS011;49406;51.044;3.766;2023-06-22T10:08:41;8.60;;;5.20;;
63280;SDS011;49406;51.044;3.766;2023-06-22T10:11:15;5.20;;;3.40;;
63280;SDS011;49406;51.044;3.766;2023-06-22T10:13:50;11.80;;;6.40;;
63280;SDS011;49406;51.044;3.766;2023-06-22T10:16:29;6.60;;;3.80;;
63280;SDS011;49406;51.044;3.766;2023-06-22T10:19:04;10.00;;;6.50;;
63280;SDS011;49406;51.044;3.766;2023-06-22T10:21:39;10.40;;;6.80;;
63280;SDS011;49406;51.044;3.766;2023-06-22T10:24:13;16.70;;;7.20;;
63280;SDS011;49406;51.044;3.766;2023-06-22T10:26:48;3.50;;;2.40;;
63280;SDS011;49406;51.044;3.766;2023-06-22T10:29:22;8.20;;;5.00;;
63280;SDS011;49406;51.044;3.766;2023-06-22T10:31:57;13.20;;;7.70;;
63280;SDS011;49406;51.044;3.766;2023-06-22T10:34:32;6.00;;;3.00;;
63280;SDS011;49406;51.044;3.766;2023-06-22T10:37:06;12.10;;;7.40;;
63280;SDS011;49406;51.044;3.766;2023-06-22T10:39:41;9.90;;;5.40;;
63280;SDS011;49406;51.044;3.766;2023-06-22T10:42:16;7.80;;;4.30;;
63280;SDS011;49406;51.044;3.766;2023-06-22T10:44:50;16.70;;;9.30;;
63280;SDS011;49406;51.044;3.766;2023-06-22T10:47:25;7.50;;;4.50;;
63280;SDS011;49406;51.044;3.766;2023-06-22T10:49:59;13.40;;;8.90;;
63280;SDS011;49406;51.044;3.766;2023-06-22T10:52:34;12.70;;;8.60;;
63280;SDS011;49406;51.044;3.766;2023-06-22T10:55:09;7.10;;;5.40;;
63280;SDS011;49406;51.044;3.766;2023-06-22T10:57:44;6.20;;;4.40;;
63280;SDS011;49406;51.044;3.766;2023-06-22T11:00:19;7.90;;;4.00;;
63280;SDS011;49406;51.044;3.766;2023-06-22T11:02:54;11.50;;;7.50;;
63280;SDS011;49406;51.044;3.766;2023-06-22T11:05:29;15.10;;;9.50;;
63280;SDS011;49406;51.044;3.766;2023-06-22T11:08:05;11.00;;;7.90;;
63280;SDS011;49406;51.044;3.766;2023-06-22T11:10:39;8.40;;;3.70;;
63280;SDS011;49406;51.044;3.766;2023-06-22T11:13:14;9.00;;;3.70;;
63280;SDS011;49406;51.044;3.766;2023-06-22T11:15:48;10.40;;;6.60;;
63280;SDS011;49406;51.044;3.766;2023-06-22T11:18:23;14.40;;;5.10;;
63280;SDS011;49406;51.044;3.766;2023-06-22T11:20:57;8.00;;;4.80;;
63280;SDS011;49406;51.044;3.766;2023-06-22T11:23:32;4.60;;;3.50;;
63280;SDS011;49406;51.044;3.766;2023-06-22T11:26:07;6.60;;;3.40;;
63280;SDS011;49406;51.044;3.766;2023-06-22T11:28:41;9.10;;;4.60;;
63280;SDS011;49406;51.044;3.766;2023-06-22T11:31:16;6.90;;;3.20;;
63280;SDS011;49406;51.044;3.766;2023-06-22T11:33:51;10.20;;;7.10;;
63280;SDS011;49406;51.044;3.766;2023-06-22T11:36:25;6.20;;;4.80;;
63280;SDS011;49406;51.044;3.766;2023-06-22T11:39:00;8.00;;;5.60;;
63280;SDS011;49406;51.044;3.766;2023-06-22T11:41:36;6.70;;;3.40;;
63280;SDS011;49406;51.044;3.766;2023-06-22T11:44:11;4.70;;;3.20;;
63280;SDS011;49406;51.044;3.766;2023-06-22T11:46:45;9.80;;;5.00;;
63280;SDS011;49406;51.044;3.766;2023-06-22T11:49:20;2.80;;;2.30;;
63280;SDS011;49406;51.044;3.766;2023-06-22T11:51:55;4.80;;;3.40;;
63280;SDS011;49406;51.044;3.766;2023-06-22T11:54:30;4.70;;;3.20;;
63280;SDS011;49406;51.044;3.766;2023-06-22T11:57:05;4.10;;;2.50;;
63280;SDS011;49406;51.044;3.766;2023-06-22T11:59:39;7.80;;;4.50;;
63280;SDS011;49406;51.044;3.766;2023-06-22T12:02:14;3.10;;;2.70;;
63280;SDS011;49406;51.044;3.766;2023-06-22T12:04:49;6.50;;;3.70;;
63280;SDS011;49406;51.044;3.766;2023-06-22T12:07:26;1.80;;;0.90;;
63280;SDS011;49406;51.044;3.766;2023-06-22T12:10:01;6.00;;;4.00;;
63280;SDS011;49406;51.044;3.766;2023-06-22T12:12:36;6.30;;;2.80;;
63280;SDS011;49406;51.044;3.766;2023-06-22T12:15:10;3.90;;;2.50;;
63280;SDS011;49406;51.044;3.766;2023-06-22T12:17:45;5.50;;;2.60;;
63280;SDS011;49406;51.044;3.766;2023-06-22T12:20:20;7.10;;;4.00;;
63280;SDS011;49406;51.044;3.766;2023-06-22T12:22:55;1.90;;;1.10;;
63280;SDS011;49406;51.044;3.766;2023-06-22T12:25:30;5.80;;;3.20;;
63280;SDS011;49406;51.044;3.766;2023-06-22T12:28:05;5.80;;;2.90;;
63280;SDS011;49406;51.044;3.766;2023-06-22T12:30:39;1.50;;;0.90;;
63280;SDS011;49406;51.044;3.766;2023-06-22T12:33:14;5.30;;;3.20;;
63280;SDS011;49406;51.044;3.766;2023-06-22T12:35:48;8.70;;;4.80;;
63280;SDS011;49406;51.044;3.766;2023-06-22T12:38:23;8.20;;;5.10;;
63280;SDS011;49406;51.044;3.766;2023-06-22T12:40:58;6.10;;;3.00;;
63280;SDS011;49406;51.044;3.766;2023-06-22T12:43:32;5.80;;;5.00;;
63280;SDS011;49406;51.044;3.766;2023-06-22T12:46:07;5.10;;;3.10;;
63280;SDS011;49406;51.044;3.766;2023-06-22T12:48:42;5.30;;;3.00;;
63280;SDS011;49406;51.044;3.766;2023-06-22T12:51:21;5.50;;;4.20;;
63280;SDS011;49406;51.044;3.766;2023-06-22T12:53:56;5.10;;;3.80;;
63280;SDS011;49406;51.044;3.766;2023-06-22T12:56:30;3.10;;;2.20;;
63280;SDS011;49406;51.044;3.766;2023-06-22T12:59:05;6.70;;;3.80;;
63280;SDS011;49406;51.044;3.766;2023-06-22T13:01:40;7.20;;;4.70;;
63280;SDS011;49406;51.044;3.766;2023-06-22T13:04:15;6.60;;;3.20;;
63280;SDS011;49406;51.044;3.766;2023-06-22T13:06:50;6.20;;;4.00;;
63280;SDS011;49406;51.044;3.766;2023-06-22T13:09:24;7.50;;;4.40;;
63280;SDS011;49406;51.044;3.766;2023-06-22T13:11:59;4.60;;;2.90;;
63280;SDS011;49406;51.044;3.766;2023-06-22T13:14:34;3.60;;;1.90;;
63280;SDS011;49406;51.044;3.766;2023-06-22T13:17:09;4.70;;;3.00;;
63280;SDS011;49406;51.044;3.766;2023-06-22T13:19:43;2.10;;;1.40;;
63280;SDS011;49406;51.044;3.766;2023-06-22T13:22:28;9.40;;;4.20;;
63280;SDS011;49406;51.044;3.766;2023-06-22T13:25:05;7.20;;;4.60;;
63280;SDS011;49406;51.044;3.766;2023-06-22T13:27:43;12.70;;;5.00;;
63280;SDS011;49406;51.044;3.766;2023-06-22T13:30:17;11.10;;;6.40;;
63280;SDS011;49406;51.044;3.766;2023-06-22T13:32:52;9.00;;;4.80;;
63280;SDS011;49406;51.044;3.766;2023-06-22T13:35:27;10.20;;;5.30;;
63280;SDS011;49406;51.044;3.766;2023-06-22T13:38:01;8.30;;;5.70;;
63280;SDS011;49406;51.044;3.766;2023-06-22T13:40:36;11.00;;;7.60;;
63280;SDS011;49406;51.044;3.766;2023-06-22T13:43:11;7.20;;;5.10;;
63280;SDS011;49406;51.044;3.766;2023-06-22T13:45:45;10.20;;;8.20;;
63280;SDS011;49406;51.044;3.766;2023-06-22T13:48:20;10.30;;;6.50;;
63280;SDS011;49406;51.044;3.766;2023-06-22T13:50:57;4.90;;;2.60;;
63280;SDS011;49406;51.044;3.766;2023-06-22T13:53:32;8.00;;;5.10;;
63280;SDS011;49406;51.044;3.766;2023-06-22T13:56:06;8.50;;;6.10;;
63280;SDS011;49406;51.044;3.766;2023-06-22T13:58:41;7.50;;;5.60;;
63280;SDS011;49406;51.044;3.766;2023-06-22T14:01:16;7.70;;;6.70;;
63280;SDS011;49406;51.044;3.766;2023-06-22T14:03:50;10.30;;;7.50;;
63280;SDS011;49406;51.044;3.766;2023-06-22T14:06:25;2.90;;;2.00;;
63280;SDS011;49406;51.044;3.766;2023-06-22T14:09:00;6.70;;;5.60;;
63280;SDS011;49406;51.044;3.766;2023-06-22T14:11:34;10.30;;;7.90;;
63280;SDS011;49406;51.044;3.766;2023-06-22T14:14:09;11.70;;;8.60;;
63280;SDS011;49406;51.044;3.766;2023-06-22T14:16:43;10.40;;;7.50;;
63280;SDS011;49406;51.044;3.766;2023-06-22T14:19:19;8.10;;;6.20;;
63280;SDS011;49406;51.044;3.766;2023-06-22T14:21:54;4.10;;;2.90;;
63280;SDS011;49406;51.044;3.766;2023-06-22T14:24:29;10.40;;;3.40;;
63280;SDS011;49406;51.044;3.766;2023-06-22T14:27:04;6.30;;;4.90;;
63280;SDS011;49406;51.044;3.766;2023-06-22T14:29:40;9.70;;;6.10;;
63280;SDS011;49406;51.044;3.766;2023-06-22T14:32:15;7.80;;;5.50;;
63280;SDS011;49406;51.044;3.766;2023-06-22T14:34:49;4.80;;;3.10;;
63280;SDS011;49406;51.044;3.766;2023-06-22T14:37:24;10.60;;;6.70;;
63280;SDS011;49406;51.044;3.766;2023-06-22T14:39:58;10.50;;;5.30;;
63280;SDS011;49406;51.044;3.766;2023-06-22T14:42:33;7.30;;;6.40;;
63280;SDS011;49406;51.044;3.766;2023-06-22T14:45:08;11.40;;;8.00;;
63280;SDS011;49406;51.044;3.766;2023-06-22T14:47:43;6.70;;;5.30;;
63280;SDS011;49406;51.044;3.766;2023-06-22T14:50:17;15.10;;;7.40;;
63280;SDS011;49406;51.044;3.766;2023-06-22T14:52:52;12.40;;;9.60;;
63280;SDS011;49406;51.044;3.766;2023-06-22T14:55:27;7.00;;;5.20;;
63280;SDS011;49406;51.044;3.766;2023-06-22T14:58:02;6.20;;;4.40;;
63280;SDS011;49406;51.044;3.766;2023-06-22T15:00:36;10.00;;;7.10;;
63280;SDS011;49406;51.044;3.766;2023-06-22T15:03:11;16.60;;;11.00;;
63280;SDS011;49406;51.044;3.766;2023-06-22T15:05:50;16.00;;;10.50;;
63280;SDS011;49406;51.044;3.766;2023-06-22T15:08:25;6.90;;;5.30;;
63280;SDS011;49406;51.044;3.766;2023-06-22T15:10:59;6.80;;;4.30;;
63280;SDS011;49406;51.044;3.766;2023-06-22T15:13:34;6.00;;;3.70;;
63280;SDS011;49406;51.044;3.766;2023-06-22T15:16:11;14.70;;;9.30;;
63280;SDS011;49406;51.044;3.766;2023-06-22T15:18:46;21.70;;;8.40;;
63280;SDS011;49406;51.044;3.766;2023-06-22T15:21:20;8.20;;;6.40;;
63280;SDS011;49406;51.044;3.766;2023-06-22T15:23:55;14.30;;;7.20;;
63280;SDS011;49406;51.044;3.766;2023-06-22T15:26:30;17.00;;;6.90;;
63280;SDS011;49406;51.044;3.766;2023-06-22T15:29:04;8.90;;;6.30;;
63280;SDS011;49406;51.044;3.766;2023-06-22T15:31:39;8.80;;;5.40;;
63280;SDS011;49406;51.044;3.766;2023-06-22T15:34:14;10.90;;;8.40;;
63280;SDS011;49406;51.044;3.766;2023-06-22T15:36:48;10.40;;;7.00;;
63280;SDS011;49406;51.044;3.766;2023-06-22T15:39:23;6.70;;;4.20;;
63280;SDS011;49406;51.044;3.766;2023-06-22T15:41:58;17.50;;;11.40;;
63280;SDS011;49406;51.044;3.766;2023-06-22T15:44:32;19.80;;;13.20;;
63280;SDS011;49406;51.044;3.766;2023-06-22T15:47:07;20.10;;;13.10;;